createdAt,value
2022-09-26T00:01:25.410Z,10.71
2022-09-26T00:03:59.464Z,10.71
2022-09-26T00:06:27.429Z,10.70
2022-09-26T00:08:54.436Z,10.69
2022-09-26T00:11:24.948Z,10.68
2022-09-26T00:13:54.321Z,10.56
2022-09-26T00:16:21.842Z,10.50
2022-09-26T00:18:50.749Z,10.52
2022-09-26T00:21:18.605Z,10.49
2022-09-26T00:23:46.058Z,10.48
2022-09-26T00:26:14.330Z,10.46
2022-09-26T00:28:41.032Z,10.47
2022-09-26T00:31:14.563Z,10.41
2022-09-26T00:33:41.644Z,10.39
2022-09-26T00:36:08.965Z,10.33
2022-09-26T00:38:35.726Z,10.27
2022-09-26T00:41:02.979Z,10.22
2022-09-26T00:43:35.568Z,10.20
2022-09-26T00:46:26.931Z,10.27
2022-09-26T00:49:25.729Z,10.20
2022-09-26T00:52:15.467Z,10.15
2022-09-26T00:54:46.889Z,10.09
2022-09-26T00:57:18.851Z,10.09
2022-09-26T00:59:50.449Z,10.07
2022-09-26T01:02:18.450Z,10.07
2022-09-26T01:04:47.211Z,10.07
2022-09-26T01:07:24.049Z,10.06
2022-09-26T01:09:51.558Z,10.00
2022-09-26T01:12:20.128Z,10.01
2022-09-26T01:14:48.590Z,10.06
2022-09-26T01:17:16.124Z,10.09
2022-09-26T01:20:04.361Z,10.11
2022-09-26T01:23:05.969Z,10.11
2022-09-26T01:25:51.257Z,10.11
2022-09-26T01:28:34.676Z,10.11
2022-09-26T01:31:12.205Z,10.07
2022-09-26T01:33:57.519Z,10.09
2022-09-26T01:36:39.360Z,10.08
2022-09-26T01:39:20.058Z,10.07
2022-09-26T01:41:55.701Z,10.08
2022-09-26T01:44:31.123Z,10.11
2022-09-26T01:47:15.934Z,10.08
2022-09-26T01:49:58.799Z,10.09
2022-09-26T01:52:34.157Z,10.09
2022-09-26T01:55:18.176Z,10.09
2022-09-26T01:57:49.706Z,10.02
2022-09-26T02:00:16.463Z,10.04
2022-09-26T02:02:49.282Z,10.05
2022-09-26T02:05:28.854Z,10.06
2022-09-26T02:08:02.093Z,10.07
2022-09-26T02:10:34.857Z,10.10
2022-09-26T02:13:09.340Z,10.09
2022-09-26T02:15:38.320Z,10.08
2022-09-26T02:18:31.516Z,10.09
2022-09-26T02:21:07.475Z,10.10
2022-09-26T02:23:34.133Z,10.06
2022-09-26T02:26:00.765Z,9.98
2022-09-26T02:28:28.590Z,9.97
2022-09-26T02:30:56.403Z,9.99
2022-09-26T02:33:23.685Z,10.03
2022-09-26T02:35:56.508Z,10.03
2022-09-26T02:38:29.716Z,10.00
2022-09-26T02:41:00.328Z,10.00
2022-09-26T02:43:52.294Z,9.99
2022-09-26T02:46:39.791Z,9.96
2022-09-26T02:49:18.493Z,9.94
2022-09-26T02:52:23.794Z,9.92
2022-09-26T02:55:13.866Z,9.90
2022-09-26T02:58:19.153Z,9.86
2022-09-26T03:00:52.131Z,9.81
2022-09-26T03:03:53.559Z,9.77
2022-09-26T03:06:25.772Z,9.71
2022-09-26T03:08:55.317Z,9.68
2022-09-26T03:11:24.828Z,9.68
2022-09-26T03:13:54.996Z,9.64
2022-09-26T03:16:24.029Z,9.52
2022-09-26T03:19:09.799Z,9.52
2022-09-26T03:21:37.361Z,9.47
2022-09-26T03:24:04.275Z,9.41
2022-09-26T03:26:32.918Z,9.37
2022-09-26T03:28:59.734Z,9.33
2022-09-26T03:31:27.305Z,9.30
2022-09-26T03:33:54.211Z,9.23
2022-09-26T03:36:24.089Z,9.21
2022-09-26T03:38:50.770Z,9.17
2022-09-26T03:41:17.606Z,9.16
2022-09-26T03:43:44.275Z,9.13
2022-09-26T03:46:12.825Z,9.10
2022-09-26T03:48:39.912Z,9.07
2022-09-26T03:51:14.126Z,9.01
2022-09-26T03:53:43.330Z,8.98
2022-09-26T03:56:13.152Z,8.97
2022-09-26T03:58:40.006Z,8.97
2022-09-26T04:01:09.474Z,8.93
2022-09-26T04:03:38.297Z,8.92
2022-09-26T04:06:08.563Z,8.79
2022-09-26T04:08:39.647Z,8.76
2022-09-26T04:11:09.433Z,8.75
2022-09-26T04:13:51.402Z,8.72
2022-09-26T04:16:20.278Z,8.63
2022-09-26T04:18:47.199Z,8.62
2022-09-26T04:21:17.249Z,8.55
2022-09-26T04:23:44.439Z,8.55
2022-09-26T04:26:22.971Z,8.49
2022-09-26T04:28:52.307Z,8.48
2022-09-26T04:31:21.873Z,8.40
2022-09-26T04:33:49.148Z,8.37
2022-09-26T04:36:17.257Z,8.36
2022-09-26T04:38:43.887Z,8.37
2022-09-26T04:41:13.851Z,8.37
2022-09-26T04:43:41.267Z,8.38
2022-09-26T04:46:10.718Z,8.37
2022-09-26T04:48:37.582Z,8.36
2022-09-26T04:51:06.459Z,8.38
2022-09-26T04:53:33.893Z,8.39
2022-09-26T04:56:01.088Z,8.38
2022-09-26T04:58:28.422Z,8.36
2022-09-26T05:00:55.295Z,8.32
2022-09-26T05:03:22.163Z,8.31
2022-09-26T05:05:49.546Z,8.29
2022-09-26T05:08:17.092Z,8.29
2022-09-26T05:10:44.083Z,8.32
2022-09-26T05:13:10.909Z,8.32
2022-09-26T05:15:40.034Z,8.34
2022-09-26T05:18:07.905Z,8.38
2022-09-26T05:20:38.705Z,8.44
2022-09-26T05:23:07.832Z,8.46
2022-09-26T05:25:59.148Z,8.50
2022-09-26T05:28:26.859Z,8.53
2022-09-26T05:30:54.529Z,8.53
2022-09-26T05:33:21.863Z,8.53
2022-09-26T05:35:55.117Z,8.64
2022-09-26T05:38:21.739Z,8.74
2022-09-26T05:40:57.186Z,8.84
2022-09-26T05:43:28.206Z,8.89
2022-09-26T05:45:59.716Z,8.95
2022-09-26T05:48:27.031Z,9.04
2022-09-26T05:50:53.654Z,9.12
2022-09-26T05:53:20.361Z,9.17
2022-09-26T05:55:53.037Z,9.25
2022-09-26T05:58:19.718Z,9.34
2022-09-26T06:00:50.188Z,9.39
2022-09-26T06:03:17.101Z,9.46
2022-09-26T06:05:43.930Z,9.75
2022-09-26T06:08:11.187Z,10.09
2022-09-26T06:10:39.042Z,10.42
2022-09-26T06:13:07.795Z,10.75
2022-09-26T06:15:34.484Z,10.92
2022-09-26T06:18:06.119Z,11.01
2022-09-26T06:20:33.735Z,11.00
2022-09-26T06:23:01.889Z,10.95
2022-09-26T06:25:29.373Z,10.88
2022-09-26T06:28:00.105Z,10.88
2022-09-26T06:30:27.429Z,10.79
2022-09-26T06:32:54.360Z,10.66
2022-09-26T06:35:21.549Z,10.57
2022-09-26T06:37:48.714Z,10.49
2022-09-26T06:40:16.184Z,10.46
2022-09-26T06:42:46.839Z,10.50
2022-09-26T06:45:13.438Z,10.59
2022-09-26T06:47:40.099Z,10.71
2022-09-26T06:50:07.970Z,10.77
2022-09-26T06:52:34.970Z,10.83
2022-09-26T06:55:06.890Z,10.88
2022-09-26T06:57:41.054Z,10.97
2022-09-26T07:00:09.376Z,10.95
2022-09-26T07:02:36.661Z,10.95
2022-09-26T07:05:05.624Z,10.95
2022-09-26T07:07:32.860Z,10.90
2022-09-26T07:09:59.555Z,10.87
2022-09-26T07:12:26.341Z,10.90
2022-09-26T07:14:53.930Z,10.94
2022-09-26T07:17:21.320Z,10.98
2022-09-26T07:19:52.203Z,11.02
2022-09-26T07:22:19.172Z,11.10
2022-09-26T07:24:50.271Z,11.14
2022-09-26T07:27:18.125Z,11.24
2022-09-26T07:29:49.012Z,11.39
2022-09-26T07:32:15.735Z,11.59
2022-09-26T07:34:44.021Z,11.74
2022-09-26T07:37:10.835Z,11.78
2022-09-26T07:39:37.486Z,11.86
2022-09-26T07:42:04.472Z,11.93
2022-09-26T07:47:36.322Z,12.01
2022-09-26T07:50:12.943Z,12.06
2022-09-26T07:52:44.268Z,12.08
2022-09-26T07:55:14.519Z,12.08
2022-09-26T07:57:41.226Z,12.09
2022-09-26T08:00:14.261Z,12.07
2022-09-26T08:02:46.886Z,12.10
2022-09-26T08:05:20.154Z,12.18
2022-09-26T08:07:48.701Z,12.37
2022-09-26T08:10:24.059Z,12.40
2022-09-26T08:12:50.866Z,12.50
2022-09-26T08:15:17.627Z,12.43
2022-09-26T08:17:44.283Z,12.48
2022-09-26T08:20:11.154Z,12.48
2022-09-26T08:22:37.802Z,12.46
2022-09-26T08:25:06.956Z,12.52
2022-09-26T08:27:34.483Z,12.56
2022-09-26T08:30:04.448Z,12.55
2022-09-26T08:32:32.414Z,12.63
2022-09-26T08:35:00.240Z,12.68
2022-09-26T08:37:28.193Z,12.62
2022-09-26T08:39:54.864Z,12.64
2022-09-26T08:42:38.912Z,12.70
2022-09-26T08:45:36.509Z,12.75
2022-09-26T08:48:40.638Z,12.80
2022-09-26T08:51:31.991Z,12.86
2022-09-26T08:54:05.624Z,12.90
2022-09-26T08:56:39.361Z,12.96
2022-09-26T08:59:14.148Z,13.12
2022-09-26T09:01:44.214Z,13.20
2022-09-26T09:04:17.385Z,13.28
2022-09-26T09:06:44.891Z,13.45
2022-09-26T09:09:16.373Z,13.46
2022-09-26T09:12:10.616Z,13.55
2022-09-26T09:15:24.603Z,13.57
2022-09-26T09:18:20.976Z,13.64
2022-09-26T09:21:02.464Z,13.71
2022-09-26T09:24:00.222Z,13.75
2022-09-26T09:30:15.727Z,13.81
2022-09-26T09:33:27.867Z,13.75
2022-09-26T09:36:10.839Z,13.72
2022-09-26T09:38:40.359Z,13.72
2022-09-26T09:41:14.613Z,13.78
2022-09-26T09:43:48.794Z,13.89
2022-09-26T09:46:25.151Z,13.91
2022-09-26T09:48:58.223Z,14.01
2022-09-26T09:51:48.382Z,14.00
2022-09-26T09:54:29.889Z,14.05
2022-09-26T09:57:41.273Z,14.12
2022-09-26T10:00:19.456Z,14.19
2022-09-26T10:03:19.235Z,14.28
2022-09-26T10:05:51.755Z,14.37
2022-09-26T10:08:22.665Z,14.39
2022-09-26T10:11:04.415Z,14.39
2022-09-26T10:13:31.671Z,14.38
2022-09-26T10:16:05.241Z,14.38
2022-09-26T10:18:32.152Z,14.39
2022-09-26T10:21:06.846Z,14.36
2022-09-26T10:23:40.407Z,14.36
2022-09-26T10:26:09.716Z,14.37
2022-09-26T10:28:43.659Z,14.38
2022-09-26T10:31:12.004Z,14.36
2022-09-26T10:33:44.427Z,14.32
2022-09-26T10:36:20.676Z,14.29
2022-09-26T10:39:15.430Z,14.31
2022-09-26T10:41:45.083Z,14.30
2022-09-26T10:44:26.227Z,14.30
2022-09-26T10:46:58.140Z,14.34
2022-09-26T10:49:36.303Z,14.26
2022-09-26T10:52:08.441Z,14.20
2022-09-26T10:54:42.434Z,14.16
2022-09-26T10:57:19.791Z,14.25
2022-09-26T10:59:48.375Z,14.29
2022-09-26T11:02:21.982Z,14.34
2022-09-26T11:05:10.673Z,14.34
2022-09-26T11:07:42.914Z,14.41
2022-09-26T11:10:14.373Z,14.40
2022-09-26T11:12:56.966Z,14.36
2022-09-26T11:15:24.039Z,14.28
2022-09-26T11:17:53.535Z,14.18
2022-09-26T11:20:23.159Z,14.15
2022-09-26T11:23:00.687Z,14.18
2022-09-26T11:25:32.462Z,14.09
2022-09-26T11:28:40.372Z,14.15
2022-09-26T11:31:18.521Z,14.26
2022-09-26T11:33:45.323Z,14.20
2022-09-26T11:36:24.760Z,14.16
2022-09-26T11:38:56.878Z,14.22
2022-09-26T11:41:38.690Z,14.23
2022-09-26T11:44:05.305Z,14.27
2022-09-26T11:47:04.257Z,14.24
2022-09-26T11:50:08.192Z,14.23
2022-09-26T11:52:53.242Z,14.26
2022-09-26T11:55:24.333Z,14.32
2022-09-26T11:58:17.023Z,14.35
2022-09-26T12:00:49.148Z,14.37
2022-09-26T12:03:33.565Z,14.39
2022-09-26T12:06:21.830Z,14.39
2022-09-26T12:09:09.497Z,14.43
2022-09-26T12:11:52.982Z,14.52
2022-09-26T12:14:28.673Z,14.43
2022-09-26T12:17:11.624Z,14.38
2022-09-26T12:20:06.904Z,14.35
2022-09-26T12:22:43.953Z,14.30
2022-09-26T12:25:11.316Z,14.31
2022-09-26T12:27:43.510Z,14.31
2022-09-26T12:30:18.280Z,14.35
2022-09-26T12:32:47.810Z,14.35
2022-09-26T12:35:32.458Z,14.36
2022-09-26T12:37:59.124Z,14.32
2022-09-26T12:40:39.065Z,14.39
2022-09-26T12:43:26.147Z,14.42
2022-09-26T12:46:18.037Z,14.58
2022-09-26T12:49:02.012Z,14.67
2022-09-26T12:51:37.284Z,14.68
2022-09-26T12:54:13.339Z,14.71
2022-09-26T12:57:04.368Z,14.78
2022-09-26T12:59:49.840Z,14.75
2022-09-26T13:02:37.531Z,14.76
2022-09-26T13:05:17.269Z,14.74
2022-09-26T13:08:14.425Z,14.76
2022-09-26T13:11:07.833Z,14.79
2022-09-26T13:13:50.038Z,14.81
2022-09-26T13:16:20.678Z,14.78
2022-09-26T13:18:51.807Z,14.78
2022-09-26T13:21:24.897Z,14.75
2022-09-26T13:23:58.783Z,14.74
2022-09-26T13:26:34.165Z,14.72
2022-09-26T13:29:23.688Z,14.66
2022-09-26T13:32:14.703Z,14.58
2022-09-26T13:35:04.163Z,14.53
2022-09-26T13:37:46.099Z,14.46
2022-09-26T13:40:30.769Z,14.43
2022-09-26T13:43:23.807Z,14.42
2022-09-26T13:46:00.293Z,14.38
2022-09-26T13:49:01.039Z,14.33
2022-09-26T13:51:54.632Z,14.32
2022-09-26T13:54:54.213Z,14.26
2022-09-26T13:57:35.262Z,14.21
2022-09-26T14:00:29.341Z,14.18
2022-09-26T14:03:13.753Z,14.18
2022-09-26T14:05:52.578Z,14.13
2022-09-26T14:08:50.612Z,14.10
2022-09-26T14:11:28.761Z,14.10
2022-09-26T14:14:18.110Z,14.14
2022-09-26T14:16:53.759Z,14.09
2022-09-26T14:19:30.686Z,14.10
2022-09-26T14:22:19.185Z,14.01
2022-09-26T14:24:49.424Z,13.97
2022-09-26T14:27:16.058Z,13.94
2022-09-26T14:29:44.588Z,13.91
2022-09-26T14:32:23.348Z,13.88
2022-09-26T14:35:16.677Z,13.84
2022-09-26T14:37:46.107Z,13.90
2022-09-26T14:40:21.886Z,13.94
2022-09-26T14:43:04.182Z,13.99
2022-09-26T14:45:37.036Z,14.00
2022-09-26T14:48:21.985Z,14.04
2022-09-26T14:51:01.132Z,14.05
2022-09-26T14:53:41.340Z,14.06
2022-09-26T14:56:35.238Z,14.04
2022-09-26T14:59:16.931Z,14.04
2022-09-26T15:01:44.770Z,14.01
2022-09-26T15:04:23.598Z,13.96
2022-09-26T15:06:56.789Z,13.94
2022-09-26T15:09:49.653Z,13.97
2022-09-26T15:12:30.975Z,13.95
2022-09-26T15:15:09.899Z,13.84
2022-09-26T15:17:44.276Z,13.76
2022-09-26T15:20:20.231Z,13.71
2022-09-26T15:22:48.423Z,13.73
2022-09-26T15:25:31.377Z,13.70
2022-09-26T15:27:59.267Z,13.59
2022-09-26T15:30:36.115Z,13.50
2022-09-26T15:33:04.179Z,13.46
2022-09-26T15:35:32.507Z,13.34
2022-09-26T15:38:03.146Z,13.22
2022-09-26T15:40:32.169Z,13.25
2022-09-26T15:43:16.054Z,13.29
2022-09-26T15:45:46.362Z,13.29
2022-09-26T15:48:19.313Z,13.35
2022-09-26T15:50:55.735Z,13.30
2022-09-26T15:53:46.248Z,13.32
2022-09-26T15:56:23.557Z,13.30
2022-09-26T15:59:40.868Z,13.27
2022-09-26T16:02:23.195Z,13.24
2022-09-26T16:04:52.866Z,13.19
2022-09-26T16:07:23.837Z,13.12
2022-09-26T16:09:51.623Z,13.03
2022-09-26T16:12:22.429Z,12.98
2022-09-26T16:14:58.612Z,12.96
2022-09-26T16:17:36.970Z,12.93
2022-09-26T16:20:11.844Z,12.92
2022-09-26T16:22:51.882Z,12.89
2022-09-26T16:25:18.931Z,12.85
2022-09-26T16:28:11.701Z,12.83
2022-09-26T16:30:41.137Z,12.75
2022-09-26T16:33:08.048Z,12.68
2022-09-26T16:35:45.121Z,12.64
2022-09-26T16:38:26.774Z,12.62
2022-09-26T16:41:01.876Z,12.58
2022-09-26T16:43:31.779Z,12.55
2022-09-26T16:46:01.831Z,12.55
2022-09-26T16:48:45.493Z,12.57
2022-09-26T16:51:21.284Z,12.52
2022-09-26T16:53:54.189Z,12.49
2022-09-26T16:56:23.629Z,12.46
2022-09-26T16:58:51.742Z,12.44
2022-09-26T17:01:37.857Z,12.50
2022-09-26T17:04:10.467Z,12.39
2022-09-26T17:06:37.360Z,12.28
2022-09-26T17:09:16.815Z,12.19
2022-09-26T17:11:47.497Z,12.11
2022-09-26T17:14:16.938Z,12.04
2022-09-26T17:16:47.010Z,12.01
2022-09-26T17:19:16.697Z,12.01
2022-09-26T17:21:44.210Z,12.03
2022-09-26T17:24:17.195Z,12.00
2022-09-26T17:26:49.617Z,11.97
2022-09-26T17:29:34.107Z,11.96
2022-09-26T17:32:05.087Z,11.92
2022-09-26T17:34:34.970Z,11.86
2022-09-26T17:37:01.891Z,11.87
2022-09-26T17:39:29.377Z,11.89
2022-09-26T17:42:00.019Z,11.90
2022-09-26T17:44:26.720Z,11.89
2022-09-26T17:46:56.361Z,11.87
2022-09-26T17:49:30.563Z,11.85
2022-09-26T17:52:00.766Z,11.81
2022-09-26T17:54:42.506Z,11.79
2022-09-26T17:57:14.373Z,11.77
2022-09-26T17:59:42.804Z,11.75
2022-09-26T18:02:34.526Z,11.71
2022-09-26T18:05:06.226Z,11.66
2022-09-26T18:07:41.541Z,11.62
2022-09-26T18:10:19.406Z,11.65
2022-09-26T18:12:56.756Z,11.59
2022-09-26T18:15:24.586Z,11.56
2022-09-26T18:17:51.602Z,11.51
2022-09-26T18:20:20.118Z,11.47
2022-09-26T18:22:48.986Z,11.47
2022-09-26T18:25:19.333Z,11.44
2022-09-26T18:27:47.327Z,11.37
2022-09-26T18:30:18.890Z,11.34
2022-09-26T18:32:50.984Z,11.36
2022-09-26T18:35:20.276Z,11.37
2022-09-26T18:37:46.950Z,11.38
2022-09-26T18:40:15.655Z,11.34
2022-09-26T18:42:44.652Z,11.31
2022-09-26T18:45:19.638Z,11.33
2022-09-26T18:47:46.291Z,11.34
2022-09-26T18:50:27.406Z,11.32
2022-09-26T18:52:54.122Z,11.33
2022-09-26T18:55:42.729Z,11.33
2022-09-26T18:58:24.017Z,11.35
2022-09-26T19:01:16.873Z,11.34
2022-09-26T19:03:46.939Z,11.34
2022-09-26T19:06:19.031Z,11.35
2022-09-26T19:08:51.784Z,11.37
2022-09-26T19:11:21.265Z,11.35
2022-09-26T19:13:53.581Z,11.36
2022-09-26T19:16:21.325Z,11.38
2022-09-26T19:18:48.479Z,11.38
2022-09-26T19:21:20.905Z,11.39
2022-09-26T19:23:49.328Z,11.41
2022-09-26T19:26:30.241Z,11.41
2022-09-26T19:28:59.451Z,11.43
2022-09-26T19:31:27.383Z,11.43
2022-09-26T19:33:54.866Z,11.43
2022-09-26T19:36:22.013Z,11.45
2022-09-26T19:38:48.920Z,11.46
2022-09-26T19:41:15.710Z,11.47
2022-09-26T19:43:42.508Z,11.48
2022-09-26T19:46:14.648Z,11.47
2022-09-26T19:48:44.154Z,11.45
2022-09-26T19:51:14.236Z,11.46
2022-09-26T19:53:41.251Z,11.44
2022-09-26T19:56:08.109Z,11.45
2022-09-26T19:58:35.196Z,11.47
2022-09-26T20:01:14.256Z,11.48
2022-09-26T20:03:41.959Z,11.48
2022-09-26T20:06:24.488Z,11.50
2022-09-26T20:08:56.407Z,11.50
2022-09-26T20:11:27.192Z,11.50
2022-09-26T20:14:12.772Z,11.50
2022-09-26T20:16:42.401Z,11.48
2022-09-26T20:19:16.474Z,11.46
2022-09-26T20:21:43.320Z,11.41
2022-09-26T20:24:16.514Z,11.40
2022-09-26T20:26:43.492Z,11.33
2022-09-26T20:29:14.762Z,11.27
2022-09-26T20:31:44.769Z,11.21
2022-09-26T20:34:12.213Z,11.16
2022-09-26T20:36:47.083Z,11.16
2022-09-26T20:39:15.613Z,11.16
2022-09-26T20:41:43.931Z,11.18
2022-09-26T20:44:36.785Z,11.13
2022-09-26T20:47:04.815Z,11.12
2022-09-26T20:49:46.178Z,11.05
2022-09-26T20:52:20.695Z,11.03
2022-09-26T20:54:47.369Z,11.02
2022-09-26T20:57:17.313Z,11.04
2022-09-26T20:59:44.124Z,11.05
2022-09-26T21:02:26.165Z,11.09
2022-09-26T21:04:53.794Z,11.10
2022-09-26T21:07:21.083Z,11.11
2022-09-26T21:09:49.742Z,11.13
2022-09-26T21:12:17.916Z,11.14
2022-09-26T21:14:45.005Z,11.13
2022-09-26T21:17:24.854Z,11.11
2022-09-26T21:19:51.635Z,11.04
2022-09-26T21:22:20.804Z,11.05
2022-09-26T21:24:49.290Z,11.07
2022-09-26T21:27:16.074Z,11.09
2022-09-26T21:29:43.683Z,11.09
2022-09-26T21:32:17.209Z,11.08
2022-09-26T21:34:56.096Z,11.09
2022-09-26T21:37:22.838Z,11.09
2022-09-26T21:39:50.069Z,11.06
2022-09-26T21:42:16.832Z,11.07
2022-09-26T21:44:48.481Z,11.09
2022-09-26T21:47:15.631Z,11.11
2022-09-26T21:49:46.497Z,11.12
2022-09-26T21:52:25.210Z,11.13
2022-09-26T21:54:52.415Z,11.14
2022-09-26T21:57:25.142Z,11.14
2022-09-26T21:59:53.401Z,11.13
2022-09-26T22:02:20.747Z,11.11
2022-09-26T22:04:48.373Z,11.10
2022-09-26T22:07:15.076Z,11.11
2022-09-26T22:09:42.246Z,11.09
2022-09-26T22:12:08.999Z,11.08
2022-09-26T22:14:35.709Z,11.09
2022-09-26T22:17:02.454Z,11.09
2022-09-26T22:19:33.428Z,11.07
2022-09-26T22:22:00.939Z,11.06
2022-09-26T22:24:28.359Z,11.05
2022-09-26T22:26:55.118Z,11.00
2022-09-26T22:29:21.780Z,10.98
2022-09-26T22:31:48.581Z,11.01
2022-09-26T22:34:15.895Z,11.03
2022-09-26T22:36:42.595Z,11.04
2022-09-26T22:39:09.374Z,11.07
2022-09-26T22:41:36.101Z,11.06
2022-09-26T22:44:04.136Z,11.07
2022-09-26T22:46:33.536Z,11.08
2022-09-26T22:49:00.586Z,11.06
2022-09-26T22:51:27.813Z,11.04
2022-09-26T22:53:55.034Z,11.06
2022-09-26T22:56:21.989Z,11.05
2022-09-26T22:58:51.718Z,11.04
2022-09-26T23:01:24.142Z,10.99
2022-09-26T23:03:55.115Z,10.92
2022-09-26T23:06:22.757Z,10.84
2022-09-26T23:08:49.966Z,10.79
2022-09-26T23:11:18.393Z,10.70
2022-09-26T23:13:46.305Z,10.66
2022-09-26T23:16:17.180Z,10.65
2022-09-26T23:18:44.757Z,10.69
2022-09-26T23:21:14.433Z,10.61
2022-09-26T23:23:46.336Z,10.56
2022-09-26T23:26:22.182Z,10.48
2022-09-26T23:28:53.939Z,10.47
2022-09-26T23:31:21.825Z,10.50
2022-09-26T23:33:48.589Z,10.53
2022-09-26T23:36:15.375Z,10.53
2022-09-26T23:38:42.408Z,10.56
2022-09-26T23:41:11.388Z,10.57
2022-09-26T23:43:38.989Z,10.57
2022-09-26T23:46:06.694Z,10.53
2022-09-26T23:48:34.692Z,10.55
2022-09-26T23:51:01.464Z,10.57
2022-09-26T23:53:28.181Z,10.59
2022-09-26T23:56:11.651Z,10.60
2022-09-26T23:58:38.673Z,10.60
